sensor_id;sensor_type;location;lat;lon;timestamp;P1;durP1;ratioP1;P2;durP2;ratioP2
38220;SDS011;24023;51.280;7.148;2023-02-28T00:00:11;3.7;;;2.2;;
38220;SDS011;24023;51.280;7.148;2023-02-28T00:05:07;3.4;;;2.1;;
38220;SDS011;24023;51.280;7.148;2023-02-28T00:10:09;3.4;;;2.1;;
38220;SDS011;24023;51.280;7.148;2023-02-28T00:15:07;3.4;;;2.1;;
38220;SDS011;24023;51.280;7.148;2023-02-28T00:20:09;3.6;;;2.0;;
38220;SDS011;24023;51.280;7.148;2023-02-28T00:25:08;3.6;;;2.0;;
38220;SDS011;24023;51.280;7.148;2023-02-28T00:30:10;2.9;;;1.9;;
38220;SDS011;24023;51.280;7.148;2023-02-28T00:35:07;2.9;;;1.9;;
38220;SDS011;24023;51.280;7.148;2023-02-28T00:40:08;2.9;;;1.9;;
38220;SDS011;24023;51.280;7.148;2023-02-28T00:45:09;3.5;;;2.0;;
38220;SDS011;24023;51.280;7.148;2023-02-28T00:50:08;3.5;;;2.0;;
38220;SDS011;24023;51.280;7.148;2023-02-28T00:55:06;5.0;;;2.4;;
38220;SDS011;24023;51.280;7.148;2023-02-28T01:00:11;5.0;;;2.4;;
38220;SDS011;24023;51.280;7.148;2023-02-28T01:05:06;5.0;;;2.4;;
38220;SDS011;24023;51.280;7.148;2023-02-28T01:10:09;4.7;;;2.5;;
38220;SDS011;24023;51.280;7.148;2023-02-28T01:15:09;4.7;;;2.5;;
38220;SDS011;24023;51.280;7.148;2023-02-28T01:20:08;3.6;;;2.3;;
38220;SDS011;24023;51.280;7.148;2023-02-28T01:25:07;3.6;;;2.3;;
38220;SDS011;24023;51.280;7.148;2023-02-28T01:30:09;4.0;;;2.0;;
38220;SDS011;24023;51.280;7.148;2023-02-28T01:35:06;4.0;;;2.0;;
38220;SDS011;24023;51.280;7.148;2023-02-28T01:40:08;4.0;;;2.0;;
38220;SDS011;24023;51.280;7.148;2023-02-28T01:45:18;3.2;;;1.9;;
38220;SDS011;24023;51.280;7.148;2023-02-28T01:50:09;3.2;;;1.9;;
38220;SDS011;24023;51.280;7.148;2023-02-28T01:55:07;2.8;;;2.0;;
38220;SDS011;24023;51.280;7.148;2023-02-28T02:00:11;2.8;;;2.0;;
38220;SDS011;24023;51.280;7.148;2023-02-28T02:05:10;2.8;;;2.0;;
38220;SDS011;24023;51.280;7.148;2023-02-28T02:10:11;2.8;;;1.8;;
38220;SDS011;24023;51.280;7.148;2023-02-28T02:15:09;4.4;;;2.5;;
38220;SDS011;24023;51.280;7.148;2023-02-28T02:25:10;3.4;;;2.5;;
38220;SDS011;24023;51.280;7.148;2023-02-28T02:30:17;3.4;;;2.5;;
38220;SDS011;24023;51.280;7.148;2023-02-28T02:35:10;3.4;;;2.5;;
38220;SDS011;24023;51.280;7.148;2023-02-28T02:40:10;4.0;;;2.4;;
38220;SDS011;24023;51.280;7.148;2023-02-28T02:45:09;4.0;;;2.4;;
38220;SDS011;24023;51.280;7.148;2023-02-28T02:50:11;3.6;;;2.5;;
38220;SDS011;24023;51.280;7.148;2023-02-28T02:55:06;3.6;;;2.5;;
38220;SDS011;24023;51.280;7.148;2023-02-28T03:00:10;3.6;;;2.5;;
38220;SDS011;24023;51.280;7.148;2023-02-28T03:05:08;3.8;;;2.2;;
38220;SDS011;24023;51.280;7.148;2023-02-28T03:10:25;3.8;;;2.2;;
38220;SDS011;24023;51.280;7.148;2023-02-28T03:15:08;3.0;;;1.8;;
38220;SDS011;24023;51.280;7.148;2023-02-28T03:20:11;3.0;;;1.8;;
38220;SDS011;24023;51.280;7.148;2023-02-28T03:25:07;3.0;;;1.8;;
38220;SDS011;24023;51.280;7.148;2023-02-28T03:30:10;2.8;;;1.8;;
38220;SDS011;24023;51.280;7.148;2023-02-28T03:35:07;2.8;;;1.8;;
38220;SDS011;24023;51.280;7.148;2023-02-28T03:40:09;2.9;;;1.7;;
38220;SDS011;24023;51.280;7.148;2023-02-28T03:45:11;2.9;;;1.7;;
38220;SDS011;24023;51.280;7.148;2023-02-28T03:50:08;2.9;;;1.7;;
38220;SDS011;24023;51.280;7.148;2023-02-28T03:55:08;2.9;;;1.7;;
38220;SDS011;24023;51.280;7.148;2023-02-28T04:00:12;2.9;;;1.7;;
38220;SDS011;24023;51.280;7.148;2023-02-28T04:05:07;2.9;;;1.7;;
38220;SDS011;24023;51.280;7.148;2023-02-28T04:10:08;2.9;;;1.7;;
38220;SDS011;24023;51.280;7.148;2023-02-28T04:15:08;2.4;;;1.4;;
38220;SDS011;24023;51.280;7.148;2023-02-28T04:20:10;2.4;;;1.4;;
38220;SDS011;24023;51.280;7.148;2023-02-28T04:25:07;3.2;;;1.6;;
38220;SDS011;24023;51.280;7.148;2023-02-28T04:30:09;3.2;;;1.6;;
38220;SDS011;24023;51.280;7.148;2023-02-28T04:35:07;2.2;;;1.3;;
38220;SDS011;24023;51.280;7.148;2023-02-28T04:40:08;2.2;;;1.3;;
38220;SDS011;24023;51.280;7.148;2023-02-28T04:45:10;2.2;;;1.3;;
38220;SDS011;24023;51.280;7.148;2023-02-28T04:50:11;1.8;;;1.4;;
38220;SDS011;24023;51.280;7.148;2023-02-28T04:55:06;1.8;;;1.4;;
38220;SDS011;24023;51.280;7.148;2023-02-28T05:00:15;2.0;;;1.4;;
38220;SDS011;24023;51.280;7.148;2023-02-28T05:05:06;2.0;;;1.4;;
38220;SDS011;24023;51.280;7.148;2023-02-28T05:10:08;2.0;;;1.4;;
38220;SDS011;24023;51.280;7.148;2023-02-28T05:15:08;2.9;;;1.7;;
38220;SDS011;24023;51.280;7.148;2023-02-28T05:20:11;2.9;;;1.7;;
38220;SDS011;24023;51.280;7.148;2023-02-28T05:25:08;3.0;;;1.6;;
38220;SDS011;24023;51.280;7.148;2023-02-28T05:30:10;3.0;;;1.6;;
38220;SDS011;24023;51.280;7.148;2023-02-28T05:35:07;3.0;;;1.6;;
38220;SDS011;24023;51.280;7.148;2023-02-28T05:40:10;2.8;;;1.4;;
38220;SDS011;24023;51.280;7.148;2023-02-28T05:45:21;2.8;;;1.4;;
38220;SDS011;24023;51.280;7.148;2023-02-28T05:50:08;2.4;;;1.7;;
38220;SDS011;24023;51.280;7.148;2023-02-28T05:55:06;2.4;;;1.7;;
38220;SDS011;24023;51.280;7.148;2023-02-28T06:00:11;2.2;;;1.5;;
38220;SDS011;24023;51.280;7.148;2023-02-28T06:05:09;2.2;;;1.5;;
38220;SDS011;24023;51.280;7.148;2023-02-28T06:10:08;2.1;;;1.6;;
38220;SDS011;24023;51.280;7.148;2023-02-28T06:15:07;2.1;;;1.6;;
38220;SDS011;24023;51.280;7.148;2023-02-28T06:20:08;2.1;;;1.6;;
38220;SDS011;24023;51.280;7.148;2023-02-28T06:25:06;2.9;;;1.8;;
38220;SDS011;24023;51.280;7.148;2023-02-28T06:30:09;2.0;;;1.2;;
38220;SDS011;24023;51.280;7.148;2023-02-28T06:35:06;2.0;;;1.2;;
38220;SDS011;24023;51.280;7.148;2023-02-28T06:40:08;2.0;;;1.2;;
38220;SDS011;24023;51.280;7.148;2023-02-28T06:45:10;2.5;;;1.3;;
38220;SDS011;24023;51.280;7.148;2023-02-28T06:50:08;2.5;;;1.3;;
38220;SDS011;24023;51.280;7.148;2023-02-28T06:55:07;1.7;;;1.3;;
38220;SDS011;24023;51.280;7.148;2023-02-28T07:00:11;1.7;;;1.3;;
38220;SDS011;24023;51.280;7.148;2023-02-28T07:05:06;1.7;;;1.3;;
38220;SDS011;24023;51.280;7.148;2023-02-28T07:10:08;2.5;;;1.3;;
38220;SDS011;24023;51.280;7.148;2023-02-28T07:15:08;2.5;;;1.3;;
38220;SDS011;24023;51.280;7.148;2023-02-28T07:20:09;1.9;;;1.4;;
38220;SDS011;24023;51.280;7.148;2023-02-28T07:25:07;1.9;;;1.4;;
38220;SDS011;24023;51.280;7.148;2023-02-28T07:30:09;2.0;;;1.5;;
38220;SDS011;24023;51.280;7.148;2023-02-28T07:35:07;2.0;;;1.5;;
38220;SDS011;24023;51.280;7.148;2023-02-28T07:40:09;2.6;;;1.4;;
38220;SDS011;24023;51.280;7.148;2023-02-28T07:45:11;2.6;;;1.4;;
38220;SDS011;24023;51.280;7.148;2023-02-28T07:50:09;2.6;;;1.4;;
38220;SDS011;24023;51.280;7.148;2023-02-28T07:55:07;2.6;;;1.4;;
38220;SDS011;24023;51.280;7.148;2023-02-28T08:00:11;2.6;;;1.4;;
38220;SDS011;24023;51.280;7.148;2023-02-28T08:05:06;2.6;;;1.4;;
38220;SDS011;24023;51.280;7.148;2023-02-28T08:10:10;2.6;;;1.4;;
38220;SDS011;24023;51.280;7.148;2023-02-28T08:15:08;2.1;;;1.0;;
38220;SDS011;24023;51.280;7.148;2023-02-28T08:20:09;2.1;;;1.0;;
38220;SDS011;24023;51.280;7.148;2023-02-28T08:25:08;2.1;;;1.0;;
38220;SDS011;24023;51.280;7.148;2023-02-28T08:30:09;1.9;;;0.9;;
38220;SDS011;24023;51.280;7.148;2023-02-28T08:35:14;1.9;;;0.9;;
38220;SDS011;24023;51.280;7.148;2023-02-28T08:40:08;2.8;;;1.4;;
38220;SDS011;24023;51.280;7.148;2023-02-28T08:45:09;2.8;;;1.4;;
38220;SDS011;24023;51.280;7.148;2023-02-28T08:50:08;2.2;;;1.4;;
38220;SDS011;24023;51.280;7.148;2023-02-28T08:55:06;2.2;;;1.4;;
38220;SDS011;24023;51.280;7.148;2023-02-28T09:00:14;2.2;;;1.4;;
38220;SDS011;24023;51.280;7.148;2023-02-28T09:05:06;2.5;;;1.3;;
38220;SDS011;24023;51.280;7.148;2023-02-28T09:10:08;2.5;;;1.3;;
38220;SDS011;24023;51.280;7.148;2023-02-28T09:15:07;2.9;;;1.4;;
38220;SDS011;24023;51.280;7.148;2023-02-28T09:20:08;2.9;;;1.4;;
38220;SDS011;24023;51.280;7.148;2023-02-28T09:25:06;1.8;;;1.2;;
38220;SDS011;24023;51.280;7.148;2023-02-28T09:30:09;1.8;;;1.2;;
38220;SDS011;24023;51.280;7.148;2023-02-28T09:35:07;1.6;;;1.0;;
38220;SDS011;24023;51.280;7.148;2023-02-28T09:40:09;1.6;;;1.0;;
38220;SDS011;24023;51.280;7.148;2023-02-28T09:45:13;2.7;;;1.3;;
38220;SDS011;24023;51.280;7.148;2023-02-28T09:50:11;2.7;;;1.3;;
38220;SDS011;24023;51.280;7.148;2023-02-28T09:55:15;2.7;;;1.3;;
38220;SDS011;24023;51.280;7.148;2023-02-28T10:00:13;2.7;;;1.3;;
38220;SDS011;24023;51.280;7.148;2023-02-28T10:05:07;1.7;;;1.0;;
38220;SDS011;24023;51.280;7.148;2023-02-28T10:15:07;1.3;;;0.9;;
38220;SDS011;24023;51.280;7.148;2023-02-28T10:20:09;1.3;;;0.9;;
38220;SDS011;24023;51.280;7.148;2023-02-28T10:25:15;1.3;;;0.9;;
38220;SDS011;24023;51.280;7.148;2023-02-28T10:30:10;1.6;;;1.0;;
38220;SDS011;24023;51.280;7.148;2023-02-28T10:35:09;1.6;;;1.0;;
38220;SDS011;24023;51.280;7.148;2023-02-28T10:40:24;1.9;;;0.9;;
38220;SDS011;24023;51.280;7.148;2023-02-28T10:45:11;1.9;;;0.9;;
38220;SDS011;24023;51.280;7.148;2023-02-28T10:50:23;1.9;;;0.9;;
38220;SDS011;24023;51.280;7.148;2023-02-28T10:55:14;2.0;;;1.1;;
38220;SDS011;24023;51.280;7.148;2023-02-28T11:00:14;2.0;;;1.1;;
38220;SDS011;24023;51.280;7.148;2023-02-28T11:05:23;2.3;;;1.2;;
38220;SDS011;24023;51.280;7.148;2023-02-28T11:10:16;2.3;;;1.2;;
38220;SDS011;24023;51.280;7.148;2023-02-28T11:15:21;1.9;;;1.0;;
38220;SDS011;24023;51.280;7.148;2023-02-28T11:20:14;1.9;;;1.0;;
38220;SDS011;24023;51.280;7.148;2023-02-28T11:25:07;2.0;;;1.1;;
38220;SDS011;24023;51.280;7.148;2023-02-28T11:30:22;2.0;;;1.1;;
38220;SDS011;24023;51.280;7.148;2023-02-28T11:35:14;2.0;;;1.1;;
38220;SDS011;24023;51.280;7.148;2023-02-28T11:40:09;2.3;;;1.1;;
38220;SDS011;24023;51.280;7.148;2023-02-28T11:45:14;2.0;;;1.3;;
38220;SDS011;24023;51.280;7.148;2023-02-28T11:50:13;2.0;;;1.3;;
38220;SDS011;24023;51.280;7.148;2023-02-28T11:55:09;2.0;;;1.3;;
38220;SDS011;24023;51.280;7.148;2023-02-28T12:00:14;2.0;;;1.5;;
38220;SDS011;24023;51.280;7.148;2023-02-28T12:05:11;2.0;;;1.5;;
38220;SDS011;24023;51.280;7.148;2023-02-28T12:10:11;2.4;;;1.5;;
38220;SDS011;24023;51.280;7.148;2023-02-28T12:15:42;2.4;;;1.5;;
38220;SDS011;24023;51.280;7.148;2023-02-28T12:20:12;2.1;;;1.2;;
38220;SDS011;24023;51.280;7.148;2023-02-28T12:25:19;2.1;;;1.2;;
38220;SDS011;24023;51.280;7.148;2023-02-28T12:30:13;2.1;;;1.4;;
38220;SDS011;24023;51.280;7.148;2023-02-28T12:35:12;2.1;;;1.4;;
38220;SDS011;24023;51.280;7.148;2023-02-28T12:40:09;2.1;;;1.4;;
38220;SDS011;24023;51.280;7.148;2023-02-28T12:45:10;2.0;;;1.4;;
38220;SDS011;24023;51.280;7.148;2023-02-28T12:50:10;2.0;;;1.4;;
38220;SDS011;24023;51.280;7.148;2023-02-28T12:55:07;2.0;;;1.2;;
38220;SDS011;24023;51.280;7.148;2023-02-28T13:00:13;2.0;;;1.2;;
38220;SDS011;24023;51.280;7.148;2023-02-28T13:05:10;2.0;;;1.2;;
38220;SDS011;24023;51.280;7.148;2023-02-28T13:10:08;2.8;;;1.6;;
38220;SDS011;24023;51.280;7.148;2023-02-28T13:15:16;2.8;;;1.6;;
38220;SDS011;24023;51.280;7.148;2023-02-28T13:20:14;2.3;;;1.5;;
38220;SDS011;24023;51.280;7.148;2023-02-28T13:26:06;2.3;;;1.5;;
38220;SDS011;24023;51.280;7.148;2023-02-28T13:31:13;2.3;;;1.5;;
38220;SDS011;24023;51.280;7.148;2023-02-28T13:35:14;2.3;;;1.5;;
38220;SDS011;24023;51.280;7.148;2023-02-28T13:40:26;2.3;;;1.5;;
38220;SDS011;24023;51.280;7.148;2023-02-28T13:45:19;2.8;;;1.5;;
38220;SDS011;24023;51.280;7.148;2023-02-28T13:50:20;2.8;;;1.5;;
38220;SDS011;24023;51.280;7.148;2023-02-28T13:55:17;2.3;;;1.4;;
38220;SDS011;24023;51.280;7.148;2023-02-28T14:00:20;2.3;;;1.4;;
38220;SDS011;24023;51.280;7.148;2023-02-28T14:05:06;2.3;;;1.4;;
38220;SDS011;24023;51.280;7.148;2023-02-28T14:10:15;2.5;;;1.5;;
38220;SDS011;24023;51.280;7.148;2023-02-28T14:15:25;2.5;;;1.5;;
38220;SDS011;24023;51.280;7.148;2023-02-28T14:20:12;2.6;;;1.4;;
38220;SDS011;24023;51.280;7.148;2023-02-28T14:25:08;2.6;;;1.4;;
38220;SDS011;24023;51.280;7.148;2023-02-28T14:30:15;2.5;;;1.8;;
38220;SDS011;24023;51.280;7.148;2023-02-28T14:35:12;2.5;;;1.8;;
38220;SDS011;24023;51.280;7.148;2023-02-28T14:40:11;1.8;;;1.4;;
38220;SDS011;24023;51.280;7.148;2023-02-28T14:45:16;2.0;;;1.6;;
38220;SDS011;24023;51.280;7.148;2023-02-28T14:50:17;2.0;;;1.6;;
38220;SDS011;24023;51.280;7.148;2023-02-28T14:55:12;2.0;;;1.6;;
38220;SDS011;24023;51.280;7.148;2023-02-28T15:00:13;2.0;;;1.6;;
38220;SDS011;24023;51.280;7.148;2023-02-28T15:05:18;1.7;;;1.6;;
38220;SDS011;24023;51.280;7.148;2023-02-28T15:10:09;1.7;;;1.6;;
38220;SDS011;24023;51.280;7.148;2023-02-28T15:15:14;1.7;;;1.6;;
38220;SDS011;24023;51.280;7.148;2023-02-28T15:20:10;2.2;;;1.8;;
38220;SDS011;24023;51.280;7.148;2023-02-28T15:25:09;2.2;;;1.8;;
38220;SDS011;24023;51.280;7.148;2023-02-28T15:30:14;2.4;;;1.7;;
38220;SDS011;24023;51.280;7.148;2023-02-28T15:35:26;2.4;;;1.7;;
38220;SDS011;24023;51.280;7.148;2023-02-28T15:40:12;2.4;;;1.6;;
38220;SDS011;24023;51.280;7.148;2023-02-28T15:45:44;2.4;;;1.6;;
38220;SDS011;24023;51.280;7.148;2023-02-28T15:50:10;2.4;;;1.6;;
38220;SDS011;24023;51.280;7.148;2023-02-28T15:55:08;2.5;;;1.7;;
38220;SDS011;24023;51.280;7.148;2023-02-28T16:00:11;2.5;;;1.7;;
38220;SDS011;24023;51.280;7.148;2023-02-28T16:05:18;2.5;;;1.9;;
38220;SDS011;24023;51.280;7.148;2023-02-28T16:10:08;2.5;;;1.9;;
38220;SDS011;24023;51.280;7.148;2023-02-28T16:15:08;2.5;;;1.9;;
38220;SDS011;24023;51.280;7.148;2023-02-28T16:20:12;2.5;;;1.9;;
38220;SDS011;24023;51.280;7.148;2023-02-28T16:25:10;2.5;;;2.1;;
38220;SDS011;24023;51.280;7.148;2023-02-28T16:30:13;2.5;;;2.1;;
38220;SDS011;24023;51.280;7.148;2023-02-28T16:35:09;2.8;;;2.1;;
38220;SDS011;24023;51.280;7.148;2023-02-28T16:40:09;2.8;;;2.1;;
38220;SDS011;24023;51.280;7.148;2023-02-28T16:45:14;2.8;;;2.1;;
38220;SDS011;24023;51.280;7.148;2023-02-28T16:50:11;2.7;;;1.9;;
38220;SDS011;24023;51.280;7.148;2023-02-28T16:55:06;2.7;;;1.9;;
38220;SDS011;24023;51.280;7.148;2023-02-28T17:00:13;4.0;;;2.0;;
38220;SDS011;24023;51.280;7.148;2023-02-28T17:05:08;4.0;;;2.0;;
38220;SDS011;24023;51.280;7.148;2023-02-28T17:10:11;3.0;;;2.1;;
38220;SDS011;24023;51.280;7.148;2023-02-28T17:15:10;7.6;;;5.5;;
38220;SDS011;24023;51.280;7.148;2023-02-28T17:20:11;7.6;;;5.5;;
38220;SDS011;24023;51.280;7.148;2023-02-28T17:25:07;3.9;;;2.6;;
38220;SDS011;24023;51.280;7.148;2023-02-28T17:30:12;3.9;;;2.6;;
38220;SDS011;24023;51.280;7.148;2023-02-28T17:35:07;4.0;;;2.5;;
38220;SDS011;24023;51.280;7.148;2023-02-28T17:40:11;4.0;;;2.5;;
38220;SDS011;24023;51.280;7.148;2023-02-28T17:45:11;4.0;;;2.5;;
38220;SDS011;24023;51.280;7.148;2023-02-28T17:50:10;4.0;;;2.5;;
38220;SDS011;24023;51.280;7.148;2023-02-28T17:55:08;3.1;;;2.2;;
38220;SDS011;24023;51.280;7.148;2023-02-28T18:00:13;3.1;;;2.2;;
38220;SDS011;24023;51.280;7.148;2023-02-28T18:05:07;3.3;;;2.4;;
38220;SDS011;24023;51.280;7.148;2023-02-28T18:10:11;3.3;;;2.4;;
38220;SDS011;24023;51.280;7.148;2023-02-28T18:15:07;3.3;;;2.4;;
38220;SDS011;24023;51.280;7.148;2023-02-28T18:20:10;3.2;;;2.3;;
38220;SDS011;24023;51.280;7.148;2023-02-28T18:25:07;3.2;;;2.3;;
38220;SDS011;24023;51.280;7.148;2023-02-28T18:30:11;2.9;;;2.4;;
38220;SDS011;24023;51.280;7.148;2023-02-28T18:35:07;2.9;;;2.4;;
38220;SDS011;24023;51.280;7.148;2023-02-28T18:40:08;2.9;;;2.4;;
38220;SDS011;24023;51.280;7.148;2023-02-28T18:45:09;3.6;;;2.7;;
38220;SDS011;24023;51.280;7.148;2023-02-28T18:50:08;3.6;;;2.7;;
38220;SDS011;24023;51.280;7.148;2023-02-28T18:55:08;4.0;;;2.8;;
38220;SDS011;24023;51.280;7.148;2023-02-28T19:00:10;4.0;;;2.8;;
38220;SDS011;24023;51.280;7.148;2023-02-28T19:05:07;4.0;;;2.8;;
38220;SDS011;24023;51.280;7.148;2023-02-28T19:10:08;4.0;;;2.9;;
38220;SDS011;24023;51.280;7.148;2023-02-28T19:15:07;4.0;;;2.9;;
38220;SDS011;24023;51.280;7.148;2023-02-28T19:20:08;4.3;;;2.9;;
38220;SDS011;24023;51.280;7.148;2023-02-28T19:25:06;4.3;;;2.9;;
38220;SDS011;24023;51.280;7.148;2023-02-28T19:30:09;4.3;;;2.9;;
38220;SDS011;24023;51.280;7.148;2023-02-28T19:35:07;3.3;;;2.8;;
38220;SDS011;24023;51.280;7.148;2023-02-28T19:40:08;3.3;;;2.8;;
38220;SDS011;24023;51.280;7.148;2023-02-28T19:45:14;4.1;;;3.0;;
38220;SDS011;24023;51.280;7.148;2023-02-28T19:50:08;4.1;;;3.0;;
38220;SDS011;24023;51.280;7.148;2023-02-28T19:55:07;3.9;;;2.8;;
38220;SDS011;24023;51.280;7.148;2023-02-28T20:00:13;3.9;;;2.8;;
38220;SDS011;24023;51.280;7.148;2023-02-28T20:05:06;3.9;;;2.8;;
38220;SDS011;24023;51.280;7.148;2023-02-28T20:10:09;5.1;;;3.2;;
38220;SDS011;24023;51.280;7.148;2023-02-28T20:15:08;5.1;;;3.2;;
38220;SDS011;24023;51.280;7.148;2023-02-28T20:20:11;4.1;;;3.0;;
38220;SDS011;24023;51.280;7.148;2023-02-28T20:25:06;4.1;;;3.0;;
38220;SDS011;24023;51.280;7.148;2023-02-28T20:30:09;4.1;;;3.0;;
38220;SDS011;24023;51.280;7.148;2023-02-28T20:35:06;3.7;;;2.9;;
38220;SDS011;24023;51.280;7.148;2023-02-28T20:40:09;3.7;;;2.9;;
38220;SDS011;24023;51.280;7.148;2023-02-28T20:45:09;3.9;;;3.0;;
38220;SDS011;24023;51.280;7.148;2023-02-28T20:50:08;3.9;;;3.0;;
38220;SDS011;24023;51.280;7.148;2023-02-28T20:55:06;5.5;;;3.5;;
38220;SDS011;24023;51.280;7.148;2023-02-28T21:00:15;5.5;;;3.5;;
38220;SDS011;24023;51.280;7.148;2023-02-28T21:05:06;5.9;;;3.5;;
38220;SDS011;24023;51.280;7.148;2023-02-28T21:10:08;5.9;;;3.5;;
38220;SDS011;24023;51.280;7.148;2023-02-28T21:15:08;5.9;;;3.5;;
38220;SDS011;24023;51.280;7.148;2023-02-28T21:20:08;5.0;;;3.3;;
38220;SDS011;24023;51.280;7.148;2023-02-28T21:25:06;5.0;;;3.3;;
38220;SDS011;24023;51.280;7.148;2023-02-28T21:30:09;4.2;;;3.4;;
38220;SDS011;24023;51.280;7.148;2023-02-28T21:35:06;4.2;;;3.4;;
38220;SDS011;24023;51.280;7.148;2023-02-28T21:40:08;4.2;;;3.4;;
38220;SDS011;24023;51.280;7.148;2023-02-28T21:45:11;5.4;;;3.4;;
38220;SDS011;24023;51.280;7.148;2023-02-28T21:50:09;5.4;;;3.4;;
38220;SDS011;24023;51.280;7.148;2023-02-28T21:55:07;5.1;;;3.7;;
38220;SDS011;24023;51.280;7.148;2023-02-28T22:00:11;5.1;;;3.7;;
38220;SDS011;24023;51.280;7.148;2023-02-28T22:05:06;4.9;;;3.7;;
38220;SDS011;24023;51.280;7.148;2023-02-28T22:10:09;4.9;;;3.7;;
38220;SDS011;24023;51.280;7.148;2023-02-28T22:15:07;4.9;;;3.7;;
38220;SDS011;24023;51.280;7.148;2023-02-28T22:20:08;5.2;;;3.9;;
38220;SDS011;24023;51.280;7.148;2023-02-28T22:25:06;5.2;;;3.9;;
38220;SDS011;24023;51.280;7.148;2023-02-28T22:30:09;4.8;;;3.9;;
38220;SDS011;24023;51.280;7.148;2023-02-28T22:35:06;4.8;;;3.9;;
38220;SDS011;24023;51.280;7.148;2023-02-28T22:40:09;4.8;;;3.9;;
38220;SDS011;24023;51.280;7.148;2023-02-28T22:45:09;5.5;;;4.2;;
38220;SDS011;24023;51.280;7.148;2023-02-28T22:50:08;5.5;;;4.2;;
38220;SDS011;24023;51.280;7.148;2023-02-28T22:55:07;5.4;;;3.7;;
38220;SDS011;24023;51.280;7.148;2023-02-28T23:00:19;5.4;;;3.7;;
38220;SDS011;24023;51.280;7.148;2023-02-28T23:05:08;5.4;;;3.7;;
38220;SDS011;24023;51.280;7.148;2023-02-28T23:10:08;4.7;;;3.8;;
38220;SDS011;24023;51.280;7.148;2023-02-28T23:15:09;4.7;;;3.8;;
38220;SDS011;24023;51.280;7.148;2023-02-28T23:20:10;4.8;;;4.0;;
38220;SDS011;24023;51.280;7.148;2023-02-28T23:25:06;4.8;;;4.0;;
38220;SDS011;24023;51.280;7.148;2023-02-28T23:30:10;4.9;;;3.8;;
38220;SDS011;24023;51.280;7.148;2023-02-28T23:35:07;4.9;;;3.8;;
38220;SDS011;24023;51.280;7.148;2023-02-28T23:40:09;4.8;;;4.2;;
38220;SDS011;24023;51.280;7.148;2023-02-28T23:45:10;4.8;;;4.2;;
38220;SDS011;24023;51.280;7.148;2023-02-28T23:50:08;4.8;;;4.2;;
38220;SDS011;24023;51.280;7.148;2023-02-28T23:55:06;4.5;;;3.8;;
